XS96 weather

Hillwood Heliport
Fort Worth, Texas, United States

Public forecast

Using degrees Fahrenheit for public forecast. Weather courtesy of forecast.io.

METAR (pilot weather report)

Closest report is Fort Worth Alliance Airport, 0.8 nm (1.6 km) NW. Retrieved 2019/07/17 22:53 UTC (55 minutes ago):

KAFW 172253Z 15013KT 10SM SCT060 34/21 A2994 RMK AO2 SLP121 T03440211 $

TAF (pilot weather forecast)

Closest forecast is Fort Worth Alliance Airport, 0.8 nm (1.6 km) NW. Retrieved 2019/07/17 18:30 UTC (5 hours ago):

TAF KAFW 171728Z 1718/1818 18015KT P6SM FEW050 SCT250